createdAt,value
2017-11-05T00:00:37.951Z,52.9
2017-11-05T00:01:39.751Z,53
2017-11-05T00:02:41.581Z,53
2017-11-05T00:03:43.038Z,52.9
2017-11-05T00:04:44.492Z,52.9
2017-11-05T00:05:45.946Z,52.9
2017-11-05T00:06:47.400Z,53
2017-11-05T00:07:49.222Z,52.9
2017-11-05T00:08:50.674Z,53
2017-11-05T00:09:52.837Z,52.9
2017-11-05T00:10:54.657Z,52.9
2017-11-05T00:11:56.821Z,53.1
2017-11-05T00:12:58.643Z,53.3
2017-11-05T00:14:00.117Z,52.9
2017-11-05T00:15:01.232Z,52.9
2017-11-05T00:16:03.401Z,52.9
2017-11-05T00:17:05.200Z,52.9
2017-11-05T00:18:07.017Z,53
2017-11-05T00:19:08.492Z,52.9
2017-11-05T00:20:10.316Z,53
2017-11-05T00:21:11.790Z,52.7
2017-11-05T00:22:13.610Z,52.9
2017-11-05T00:23:15.064Z,52.9
2017-11-05T00:24:16.883Z,52.9
2017-11-05T00:25:17.993Z,52.9
2017-11-05T00:26:20.157Z,52.9
2017-11-05T00:27:21.977Z,52.9
2017-11-05T00:28:23.799Z,52.9
2017-11-05T00:29:25.622Z,52.9
2017-11-05T00:30:27.441Z,53.2
2017-11-05T00:31:29.263Z,52.9
2017-11-05T00:32:31.066Z,52.8
2017-11-05T00:33:33.232Z,53.2
2017-11-05T00:34:35.049Z,53
2017-11-05T00:35:36.872Z,52.9
2017-11-05T00:36:38.345Z,52.9
2017-11-05T00:37:40.163Z,53
2017-11-05T00:38:41.281Z,52.8
2017-11-05T00:39:43.095Z,52.8
2017-11-05T00:40:44.573Z,52.9
2017-11-05T00:41:46.390Z,52.9
2017-11-05T00:42:48.197Z,52.9
2017-11-05T00:43:50.018Z,52.9
2017-11-05T00:44:51.127Z,52.8
2017-11-05T00:45:53.294Z,53.7
2017-11-05T00:46:55.465Z,53.3
2017-11-05T00:47:56.571Z,53.3
2017-11-05T00:48:58.734Z,52.9
2017-11-05T00:50:00.912Z,53.2
2017-11-05T00:51:02.731Z,53.2
2017-11-05T00:52:04.893Z,53.3
2017-11-05T00:53:06.717Z,53.3
2017-11-05T00:54:08.195Z,53.4
2017-11-05T00:55:09.307Z,53.2
2017-11-05T00:56:11.126Z,53.2
2017-11-05T00:57:13.287Z,53.2
2017-11-05T00:58:15.454Z,53.1
2017-11-05T00:59:16.564Z,53.3
2017-11-05T01:00:18.040Z,53.7
2017-11-05T01:03:19.643Z,52.8
2017-11-05T01:04:21.143Z,53.6
2017-11-05T01:05:22.961Z,53.7
2017-11-05T01:06:25.126Z,53.2
2017-11-05T01:07:26.233Z,53.3
2017-11-05T01:08:28.055Z,53.5
2017-11-05T01:09:30.221Z,53.4
2017-11-05T01:10:32.385Z,53.2
2017-11-05T01:11:34.550Z,53.2
2017-11-05T01:12:36.713Z,53.3
2017-11-05T01:13:38.169Z,53.2
2017-11-05T01:14:39.992Z,53.4
2017-11-05T01:15:41.465Z,53.2
2017-11-05T01:16:43.286Z,53.4
2017-11-05T01:17:45.086Z,52.9
2017-11-05T01:18:46.562Z,53.4
2017-11-05T01:19:48.389Z,53.2
2017-11-05T01:20:49.160Z,53.7
2017-11-05T01:21:50.980Z,53.5
2017-11-05T01:22:52.455Z,53.8
2017-11-05T01:23:53.909Z,53.4
2017-11-05T01:24:55.371Z,53.5
2017-11-05T01:25:57.189Z,53.5
2017-11-05T01:26:58.679Z,53.1
2017-11-05T01:28:00.130Z,53.4
2017-11-05T01:29:01.929Z,53.4
2017-11-05T01:30:03.727Z,53.3
2017-11-05T01:31:05.532Z,53.4
2017-11-05T01:32:07.730Z,53
2017-11-05T01:33:09.552Z,53.5
2017-11-05T01:34:11.718Z,53.3
2017-11-05T01:35:13.189Z,53.3
2017-11-05T01:36:15.023Z,53.2
2017-11-05T01:37:16.506Z,53.4
2017-11-05T01:38:17.960Z,53.3
2017-11-05T01:39:20.123Z,53.4
2017-11-05T01:40:21.924Z,53.3
2017-11-05T01:41:22.683Z,53.5
2017-11-05T01:42:24.847Z,53.2
2017-11-05T01:43:26.670Z,53.2
2017-11-05T01:44:28.488Z,53.8
2017-11-05T01:45:29.961Z,53.4
2017-11-05T01:46:31.776Z,53.3
2017-11-05T01:47:32.545Z,53.8
2017-11-05T01:48:34.709Z,53.4
2017-11-05T01:49:36.870Z,53.3
2017-11-05T01:50:38.341Z,53.2
2017-11-05T01:51:39.798Z,53.3
2017-11-05T01:52:41.965Z,53.1
2017-11-05T01:53:43.784Z,53.7
2017-11-05T01:54:45.604Z,53.3
2017-11-05T01:55:47.432Z,53.5
2017-11-05T01:56:48.909Z,53.3
2017-11-05T01:57:50.727Z,53.3
2017-11-05T01:58:52.545Z,53.2
2017-11-05T01:59:54.362Z,53.3
2017-11-05T02:00:55.840Z,53.2
2017-11-05T02:01:57.292Z,53.3
2017-11-05T02:02:59.118Z,53.3
2017-11-05T02:04:00.932Z,53.3
2017-11-05T02:05:03.095Z,53.2
2017-11-05T02:06:05.270Z,53.8
2017-11-05T02:07:06.713Z,53.7
2017-11-05T02:08:08.876Z,53.7
2017-11-05T02:09:11.041Z,53.2
2017-11-05T02:10:12.857Z,53.4
2017-11-05T02:11:14.674Z,53.4
2017-11-05T02:12:16.152Z,53.3
2017-11-05T02:13:17.604Z,53.3
2017-11-05T02:14:18.371Z,53.3
2017-11-05T02:15:20.534Z,53.3
2017-11-05T02:16:22.353Z,53.8
2017-11-05T02:17:24.167Z,53.2
2017-11-05T02:18:25.277Z,53.3
2017-11-05T02:19:27.441Z,53.4
2017-11-05T02:20:29.604Z,53.3
2017-11-05T02:21:31.080Z,53.4
2017-11-05T02:22:33.244Z,53
2017-11-05T02:23:35.414Z,53.8
2017-11-05T02:24:37.578Z,53.3
2017-11-05T02:25:39.392Z,53.5
2017-11-05T02:26:41.554Z,53.1
2017-11-05T02:27:43.371Z,53
2017-11-05T02:28:45.192Z,53.5
2017-11-05T02:29:47.018Z,53.5
2017-11-05T02:30:48.833Z,53
2017-11-05T02:31:50.653Z,53.2
2017-11-05T02:32:52.456Z,53.4
2017-11-05T02:33:54.276Z,53
2017-11-05T02:34:56.098Z,53.1
2017-11-05T02:35:57.892Z,53.6
2017-11-05T02:36:59.690Z,53.7
2017-11-05T02:38:01.490Z,53.1
2017-11-05T02:39:02.963Z,53
2017-11-05T02:40:04.780Z,53
2017-11-05T02:41:06.237Z,53.2
2017-11-05T02:42:08.040Z,53
2017-11-05T02:43:10.199Z,53.1
2017-11-05T02:44:11.652Z,53.4
2017-11-05T02:45:13.147Z,53
2017-11-05T02:46:14.253Z,53
2017-11-05T02:47:16.412Z,53.8
2017-11-05T02:48:18.246Z,53.5
2017-11-05T02:49:19.353Z,53.4
2017-11-05T02:50:21.170Z,53.1
2017-11-05T02:51:23.331Z,53.3
2017-11-05T02:52:25.498Z,53.7
2017-11-05T02:53:27.662Z,53
2017-11-05T02:54:29.490Z,53.4
2017-11-05T02:55:30.936Z,53.1
2017-11-05T02:56:32.758Z,53.7
2017-11-05T02:57:34.233Z,52.9
2017-11-05T02:58:36.029Z,53.4
2017-11-05T02:59:37.503Z,53.6
2017-11-05T03:00:39.299Z,53.4
2017-11-05T03:01:41.467Z,53.1
2017-11-05T03:02:43.283Z,53.1
2017-11-05T03:03:45.088Z,53.5
2017-11-05T03:04:46.895Z,53.4
2017-11-05T03:05:48.692Z,53.3
2017-11-05T03:06:50.514Z,53.4
2017-11-05T03:07:52.676Z,53.1
2017-11-05T03:08:54.475Z,53.4
2017-11-05T03:09:56.273Z,53.4
2017-11-05T03:10:57.383Z,53.1
2017-11-05T03:11:58.857Z,53.2
2017-11-05T03:13:00.677Z,53.4
2017-11-05T03:14:02.840Z,53.4
2017-11-05T03:15:04.639Z,53.4
2017-11-05T03:16:06.466Z,53.1
2017-11-05T03:17:08.277Z,53.7
2017-11-05T03:18:10.438Z,53.4
2017-11-05T03:19:12.260Z,53.5
2017-11-05T03:20:14.092Z,53.4
2017-11-05T03:21:16.246Z,53.4
2017-11-05T03:22:18.064Z,53.3
2017-11-05T03:23:19.538Z,53.4
2017-11-05T03:24:21.357Z,53.4
2017-11-05T03:25:23.181Z,53.8
2017-11-05T03:26:25.343Z,53.7
2017-11-05T03:27:26.819Z,54.1
2017-11-05T03:28:28.650Z,53.7
2017-11-05T03:29:30.827Z,53.4
2017-11-05T03:30:32.627Z,53.7
2017-11-05T03:31:34.792Z,53.4
2017-11-05T03:32:35.957Z,53.4
2017-11-05T03:33:37.785Z,53.6
2017-11-05T03:34:39.594Z,53.7
2017-11-05T03:35:41.063Z,53.7
2017-11-05T03:36:42.884Z,53.7
2017-11-05T03:37:44.338Z,53.7
2017-11-05T03:38:45.814Z,53.7
2017-11-05T03:39:47.632Z,53.7
2017-11-05T03:40:49.800Z,54
2017-11-05T03:41:51.629Z,53.7
2017-11-05T03:42:53.091Z,53.7
2017-11-05T03:43:54.904Z,53.7
2017-11-05T03:44:56.380Z,53.7
2017-11-05T03:45:58.556Z,53.3
2017-11-05T03:47:00.367Z,53.6
2017-11-05T03:48:02.539Z,53.7
2017-11-05T03:49:04.701Z,53.6
2017-11-05T03:50:06.864Z,53.7
2017-11-05T03:51:08.341Z,54.1
2017-11-05T03:52:10.503Z,53.8
2017-11-05T03:53:12.325Z,53.7
2017-11-05T03:54:14.487Z,53.7
2017-11-05T03:55:16.652Z,53.8
2017-11-05T03:56:18.128Z,53.6
2017-11-05T03:57:19.949Z,53.6
2017-11-05T03:58:21.427Z,53.6
2017-11-05T03:59:23.589Z,53.6
2017-11-05T04:00:25.756Z,53.7
2017-11-05T04:01:27.576Z,53.6
2017-11-05T04:02:29.394Z,53.6
2017-11-05T04:03:31.214Z,53.5
2017-11-05T04:04:33.373Z,53.8
2017-11-05T04:05:35.194Z,53.5
2017-11-05T04:06:36.677Z,53.6
2017-11-05T04:07:38.146Z,53.3
2017-11-05T04:08:40.311Z,53.5
2017-11-05T04:09:42.472Z,53.7
2017-11-05T04:10:44.295Z,53.7
2017-11-05T04:11:46.456Z,53.6
2017-11-05T04:12:48.618Z,53.9
2017-11-05T04:13:50.785Z,53.5
2017-11-05T04:14:52.235Z,53.5
2017-11-05T04:15:54.054Z,53.6
2017-11-05T04:16:55.164Z,53.6
2017-11-05T04:17:56.985Z,53.5
2017-11-05T04:18:58.801Z,53.5
2017-11-05T04:20:00.629Z,53.9
2017-11-05T04:21:02.422Z,53.4
2017-11-05T04:22:03.898Z,53.5
2017-11-05T04:23:05.028Z,53.9
2017-11-05T04:24:06.852Z,53.4
2017-11-05T04:25:08.329Z,53.6
2017-11-05T04:26:09.789Z,53.6
2017-11-05T04:27:11.955Z,53.5
2017-11-05T04:28:13.781Z,53.6
2017-11-05T04:29:15.599Z,53.5
2017-11-05T04:30:17.074Z,53.4
2017-11-05T04:31:18.556Z,53.4
2017-11-05T04:32:20.722Z,53.6
2017-11-05T04:33:22.882Z,53.5
2017-11-05T04:34:24.682Z,53.5
2017-11-05T04:35:25.816Z,53.9
2017-11-05T04:36:27.270Z,53.9
2017-11-05T04:37:28.720Z,53.7
2017-11-05T04:38:30.196Z,53.6
2017-11-05T04:39:31.675Z,53.6
2017-11-05T04:40:33.490Z,53.6
2017-11-05T04:41:35.312Z,53.8
2017-11-05T04:42:37.130Z,53.8
2017-11-05T04:43:38.949Z,53.6
2017-11-05T04:44:40.425Z,53.9
2017-11-05T04:45:41.908Z,53.6
2017-11-05T04:46:43.382Z,53.6
2017-11-05T04:47:45.549Z,53.6
2017-11-05T04:48:46.996Z,53.7
2017-11-05T04:49:49.183Z,53.5
2017-11-05T04:50:50.623Z,53.5
2017-11-05T04:51:51.387Z,53.6
2017-11-05T04:52:53.549Z,53.7
2017-11-05T04:53:55.346Z,53.6
2017-11-05T04:54:56.804Z,53.9
2017-11-05T04:55:57.563Z,53.6
2017-11-05T04:56:59.386Z,53.6
2017-11-05T04:58:00.862Z,53.7
2017-11-05T04:59:01.971Z,53.6
2017-11-05T05:00:03.449Z,53.6
2017-11-05T05:01:04.925Z,53.6
2017-11-05T05:02:06.397Z,54
2017-11-05T05:03:07.871Z,53.8
2017-11-05T05:04:10.035Z,53.8
2017-11-05T05:05:11.484Z,53.8
2017-11-05T05:06:13.304Z,53.8
2017-11-05T05:07:15.485Z,53.9
2017-11-05T05:08:17.653Z,53.8
2017-11-05T05:09:19.467Z,53.8
2017-11-05T05:10:21.627Z,53.7
2017-11-05T05:11:23.464Z,53.9
2017-11-05T05:12:25.284Z,53.7
2017-11-05T05:13:27.103Z,53.8
2017-11-05T05:14:28.924Z,53.9
2017-11-05T05:15:31.085Z,53.6
2017-11-05T05:16:32.902Z,53.9
2017-11-05T05:17:35.068Z,53.8
2017-11-05T05:18:36.891Z,53.7
2017-11-05T05:19:39.058Z,53.7
2017-11-05T05:20:41.224Z,53.7
2017-11-05T05:21:43.041Z,53.8
2017-11-05T05:22:44.861Z,53.6
2017-11-05T05:23:46.332Z,54
2017-11-05T05:24:47.805Z,53.9
2017-11-05T05:25:49.969Z,53.9
2017-11-05T05:26:51.766Z,53.7
2017-11-05T05:27:53.564Z,53.8
2017-11-05T05:28:55.728Z,53.8
2017-11-05T05:29:57.560Z,53.6
2017-11-05T05:30:59.033Z,53.5
2017-11-05T05:32:01.196Z,53.6
2017-11-05T05:33:03.359Z,54.1
2017-11-05T05:34:05.521Z,53.5
2017-11-05T05:35:07.344Z,54
2017-11-05T05:36:09.506Z,54
2017-11-05T05:37:11.327Z,53.9
2017-11-05T05:38:13.494Z,53.6
2017-11-05T05:39:15.655Z,53.7
2017-11-05T05:40:17.110Z,53.7
2017-11-05T05:41:18.568Z,53.8
2017-11-05T05:42:20.729Z,53.7
2017-11-05T05:43:22.548Z,53.9
2017-11-05T05:44:24.380Z,53.6
2017-11-05T05:45:26.547Z,53.9
2017-11-05T05:46:28.707Z,53.9
2017-11-05T05:47:30.873Z,54
2017-11-05T05:48:32.690Z,53.9
2017-11-05T05:49:34.852Z,54
2017-11-05T05:50:37.017Z,54
2017-11-05T05:51:39.180Z,53.8
2017-11-05T05:52:41.000Z,53.9
2017-11-05T05:53:42.820Z,54
2017-11-05T05:54:44.982Z,53.9
2017-11-05T05:55:46.434Z,54
2017-11-05T05:56:48.255Z,53.8
2017-11-05T05:57:50.418Z,54.2
2017-11-05T05:58:51.873Z,53.8
2017-11-05T05:59:53.693Z,53.9
2017-11-05T06:00:55.166Z,54
2017-11-05T06:01:57.326Z,53.9
2017-11-05T06:02:59.488Z,54.1
2017-11-05T06:04:01.309Z,53.9
2017-11-05T06:05:02.416Z,54
2017-11-05T06:06:03.867Z,53.9
2017-11-05T06:07:05.319Z,53.9
2017-11-05T06:08:07.142Z,53.8
2017-11-05T06:09:08.957Z,53.7
2017-11-05T06:10:10.409Z,53.8
2017-11-05T06:11:12.292Z,53.9
2017-11-05T06:12:14.087Z,53.8
2017-11-05T06:13:16.264Z,53.7
2017-11-05T06:14:18.427Z,54.2
2017-11-05T06:15:20.225Z,53.8
2017-11-05T06:16:22.020Z,53.9
2017-11-05T06:17:23.847Z,53.9
2017-11-05T06:18:25.668Z,53.8
2017-11-05T06:19:27.145Z,53.7
2017-11-05T06:20:28.967Z,53.8
2017-11-05T06:21:30.439Z,53.8
2017-11-05T06:22:32.294Z,53.8
2017-11-05T06:23:34.458Z,53.8
2017-11-05T06:24:35.908Z,53.7
2017-11-05T06:25:37.019Z,54.1
2017-11-05T06:26:39.184Z,53.8
2017-11-05T06:27:40.981Z,53.7
2017-11-05T06:28:42.798Z,53.8
2017-11-05T06:29:44.596Z,53.8
2017-11-05T06:30:46.416Z,53.7
2017-11-05T06:31:48.235Z,54.1
2017-11-05T06:32:50.055Z,53.8
2017-11-05T06:33:52.217Z,53.8
2017-11-05T06:34:54.380Z,54
2017-11-05T06:35:55.853Z,54.1
2017-11-05T06:36:57.326Z,53.8
2017-11-05T06:37:59.202Z,54.4
2017-11-05T06:39:00.659Z,54.1
2017-11-05T06:40:02.465Z,53.8
2017-11-05T06:41:03.929Z,53.7
2017-11-05T06:42:05.741Z,53.7
2017-11-05T06:43:07.561Z,53.7
2017-11-05T06:44:09.381Z,54.1
2017-11-05T06:45:11.199Z,54.1
2017-11-05T06:46:13.372Z,53.7
2017-11-05T06:47:15.196Z,54.1
2017-11-05T06:48:16.994Z,53.8
2017-11-05T06:49:18.464Z,53.9
2017-11-05T06:50:20.629Z,54
2017-11-05T06:51:22.449Z,53.9
2017-11-05T06:52:24.268Z,54.1
2017-11-05T06:53:26.430Z,54.1
2017-11-05T06:54:28.593Z,54
2017-11-05T06:55:30.413Z,53.7
2017-11-05T06:56:31.892Z,53.8
2017-11-05T06:57:34.054Z,54.1
2017-11-05T06:58:36.275Z,54.1
2017-11-05T06:59:37.735Z,54.4
2017-11-05T07:00:39.560Z,54.5
2017-11-05T07:01:41.366Z,54
2017-11-05T07:02:42.493Z,54
2017-11-05T07:03:43.949Z,54.5
2017-11-05T07:04:45.769Z,53.6
2017-11-05T07:05:47.934Z,53.9
2017-11-05T07:06:50.100Z,54.1
2017-11-05T07:07:51.586Z,53.8
2017-11-05T07:08:52.691Z,54.1
2017-11-05T07:09:53.805Z,53.8
2017-11-05T07:10:55.279Z,53.8
2017-11-05T07:11:57.443Z,53.9
2017-11-05T07:12:58.898Z,54.4
2017-11-05T07:14:00.719Z,54
2017-11-05T07:15:02.170Z,54
2017-11-05T07:16:03.970Z,54
2017-11-05T07:17:05.789Z,53.8
2017-11-05T07:18:07.956Z,53.8
2017-11-05T07:19:09.409Z,53.8
2017-11-05T07:20:10.885Z,53.7
2017-11-05T07:21:12.705Z,53.8
2017-11-05T07:22:14.869Z,53.8
2017-11-05T07:23:17.042Z,53.7
2017-11-05T07:24:18.156Z,53.7
2017-11-05T07:25:19.965Z,53.8
2017-11-05T07:26:22.133Z,53.8
2017-11-05T07:27:23.953Z,53.7
2017-11-05T07:28:26.119Z,53.7
2017-11-05T07:29:27.913Z,53.7
2017-11-05T07:30:29.728Z,54.2
2017-11-05T07:31:31.894Z,53.8
2017-11-05T07:32:33.733Z,53.9
2017-11-05T07:33:35.195Z,54.3
2017-11-05T07:34:37.020Z,53.7
2017-11-05T07:35:38.832Z,53.8
2017-11-05T07:36:40.294Z,54.3
2017-11-05T07:37:42.116Z,53.8
2017-11-05T07:38:43.935Z,53.9
2017-11-05T07:39:45.404Z,53.8
2017-11-05T07:40:47.572Z,53.9
2017-11-05T07:41:49.034Z,53.8
2017-11-05T07:42:51.197Z,53.8
2017-11-05T07:43:53.019Z,53.8
2017-11-05T07:44:54.153Z,54
2017-11-05T07:45:55.260Z,53.9
2017-11-05T07:46:57.083Z,53.8
2017-11-05T07:47:58.906Z,53.9
2017-11-05T07:49:01.067Z,54
2017-11-05T07:50:02.893Z,53.9
2017-11-05T07:51:04.710Z,53.9
2017-11-05T07:52:06.185Z,54
2017-11-05T07:53:07.641Z,54.3
2017-11-05T07:54:09.801Z,54
2017-11-05T07:55:11.964Z,53.8
2017-11-05T07:56:13.438Z,54
2017-11-05T07:57:14.890Z,53.9
2017-11-05T07:58:16.709Z,53.8
2017-11-05T07:59:18.528Z,53.9
2017-11-05T08:00:20.359Z,53.8
2017-11-05T08:01:22.516Z,53.9
2017-11-05T08:02:24.339Z,53.9
2017-11-05T08:03:26.156Z,53.9
2017-11-05T08:04:27.972Z,53.9
2017-11-05T08:05:30.142Z,53.9
2017-11-05T08:06:31.971Z,53.8
2017-11-05T08:07:34.134Z,53.9
2017-11-05T08:08:35.956Z,54.1
2017-11-05T08:09:37.773Z,54
2017-11-05T08:10:39.595Z,53.9
2017-11-05T08:11:41.756Z,54
2017-11-05T08:12:43.588Z,53.6
2017-11-05T08:13:45.058Z,54
2017-11-05T08:14:47.245Z,53.9
2017-11-05T08:15:48.722Z,53.6
2017-11-05T08:16:50.177Z,53.6
2017-11-05T08:17:51.655Z,54.1
2017-11-05T08:18:52.769Z,54
2017-11-05T08:19:54.932Z,53.8
2017-11-05T08:20:56.387Z,54.1
2017-11-05T08:21:58.189Z,53.6
2017-11-05T08:22:59.308Z,54
2017-11-05T08:24:00.755Z,53.7
2017-11-05T08:25:02.924Z,53.7
2017-11-05T08:26:05.092Z,53.8
2017-11-05T08:27:06.907Z,53.7
2017-11-05T08:28:09.070Z,53.8
2017-11-05T08:29:10.890Z,53.8
2017-11-05T08:30:12.347Z,53.8
2017-11-05T08:31:13.825Z,53.8
2017-11-05T08:32:15.993Z,53.6
2017-11-05T08:33:18.154Z,53.8
2017-11-05T08:34:19.268Z,53.6
2017-11-05T08:35:21.064Z,53.9
2017-11-05T08:36:22.945Z,53.6
2017-11-05T08:37:24.765Z,53.8
2017-11-05T08:38:26.931Z,53.6
2017-11-05T08:39:28.750Z,53.6
2017-11-05T08:40:30.229Z,53.9
2017-11-05T08:41:32.392Z,53.6
2017-11-05T08:42:34.555Z,53.7
2017-11-05T08:43:35.663Z,53.6
2017-11-05T08:44:37.119Z,54
2017-11-05T08:45:38.574Z,53.8
2017-11-05T08:46:40.048Z,53.6
2017-11-05T08:47:41.864Z,53.6
2017-11-05T08:48:44.031Z,53.6
2017-11-05T08:49:45.849Z,53.6
2017-11-05T08:50:47.652Z,53.5
2017-11-05T08:51:49.470Z,53.4
2017-11-05T08:52:50.926Z,53.5
2017-11-05T08:53:52.746Z,53.9
2017-11-05T08:54:54.910Z,53.3
2017-11-05T08:55:56.732Z,53.6
2017-11-05T08:56:58.551Z,53.5
2017-11-05T08:58:00.385Z,53.5
2017-11-05T08:59:02.199Z,53.7
2017-11-05T09:00:04.360Z,53.7
2017-11-05T09:01:06.524Z,53.6
2017-11-05T09:02:08.345Z,53.4
2017-11-05T09:03:10.507Z,53.6
2017-11-05T09:04:12.329Z,53.6
2017-11-05T09:05:14.167Z,53.7
2017-11-05T09:06:16.002Z,53.6
2017-11-05T09:07:17.795Z,53.6
2017-11-05T09:08:19.617Z,53.9
2017-11-05T09:09:21.776Z,53.6
2017-11-05T09:10:23.940Z,53.6
2017-11-05T09:11:25.419Z,53.6
2017-11-05T09:12:26.895Z,53.6
2017-11-05T09:13:28.726Z,54
2017-11-05T09:14:30.518Z,53.7
2017-11-05T09:15:32.323Z,53.7
2017-11-05T09:16:33.797Z,53.7
2017-11-05T09:17:35.616Z,53.6
2017-11-05T09:18:37.412Z,53.6
2017-11-05T09:19:39.230Z,53.7
2017-11-05T09:20:41.050Z,53.7
2017-11-05T09:21:42.505Z,53.3
2017-11-05T09:22:44.356Z,53.7
2017-11-05T09:23:46.150Z,53.6
2017-11-05T09:24:47.262Z,53.7
2017-11-05T09:25:49.079Z,53.7
2017-11-05T09:26:50.903Z,53.7
2017-11-05T09:27:52.356Z,53.4
2017-11-05T09:28:53.939Z,53.4
2017-11-05T09:29:55.069Z,53.7
2017-11-05T09:30:56.522Z,53.5
2017-11-05T09:31:57.978Z,54.2
2017-11-05T09:32:59.795Z,53.6
2017-11-05T09:34:01.619Z,53.4
2017-11-05T09:35:03.780Z,53.4
2017-11-05T09:36:05.599Z,53.8
2017-11-05T09:37:07.764Z,53.2
2017-11-05T09:38:09.564Z,53.4
2017-11-05T09:39:11.728Z,53.2
2017-11-05T09:40:13.545Z,53.3
2017-11-05T09:41:15.708Z,53.6
2017-11-05T09:42:17.511Z,53.1
2017-11-05T09:43:19.681Z,53.1
2017-11-05T09:44:21.846Z,53.1
2017-11-05T09:45:24.009Z,53.1
2017-11-05T09:46:26.174Z,53
2017-11-05T09:47:27.280Z,53.1
2017-11-05T09:48:29.099Z,53.4
2017-11-05T09:49:30.554Z,53.7
2017-11-05T09:50:32.034Z,53.7
2017-11-05T09:51:32.807Z,53.5
2017-11-05T09:52:34.626Z,53.3
2017-11-05T09:53:36.791Z,53.8
2017-11-05T09:54:38.250Z,53.3
2017-11-05T09:55:40.419Z,53.4
2017-11-05T09:56:42.239Z,53.4
2017-11-05T09:57:44.064Z,53.5
2017-11-05T09:58:46.224Z,53.1
2017-11-05T09:59:48.388Z,53.6
2017-11-05T10:00:49.862Z,53
2017-11-05T10:01:52.026Z,53.1
2017-11-05T10:02:54.189Z,53.1
2017-11-05T10:03:56.356Z,53
2017-11-05T10:04:58.175Z,53.6
2017-11-05T10:05:59.972Z,53
2017-11-05T10:07:01.793Z,53.4
2017-11-05T10:08:03.955Z,53
2017-11-05T10:09:05.416Z,53.1
2017-11-05T10:10:06.865Z,53
2017-11-05T10:11:08.691Z,53.4
2017-11-05T10:12:10.855Z,53.2
2017-11-05T10:13:12.337Z,53.3
2017-11-05T10:14:13.445Z,53
2017-11-05T10:15:15.272Z,53.9
2017-11-05T10:16:16.725Z,53.8
2017-11-05T10:17:18.895Z,53.5
2017-11-05T10:18:20.707Z,53.3
2017-11-05T10:19:22.162Z,53.3
2017-11-05T10:20:23.964Z,53.5
2017-11-05T10:21:26.128Z,53.2
2017-11-05T10:22:27.610Z,53.2
2017-11-05T10:23:29.427Z,53
2017-11-05T10:24:31.255Z,53.2
2017-11-05T10:25:32.709Z,53.2
2017-11-05T10:26:34.509Z,53.2
2017-11-05T10:27:36.331Z,53.3
2017-11-05T10:28:38.496Z,53.1
2017-11-05T10:29:40.320Z,53.4
2017-11-05T10:30:42.139Z,53.1
2017-11-05T10:31:43.258Z,53.4
2017-11-05T10:32:44.731Z,53.1
2017-11-05T10:33:46.549Z,52.8
2017-11-05T10:34:48.367Z,53.3
2017-11-05T10:35:50.532Z,53.3
2017-11-05T10:36:52.014Z,53.2
2017-11-05T10:37:53.487Z,53.2
2017-11-05T10:38:55.305Z,53.7
2017-11-05T10:39:57.472Z,53.1
2017-11-05T10:40:59.294Z,52.8
2017-11-05T10:42:01.116Z,52.9
2017-11-05T10:43:03.282Z,53.2
2017-11-05T10:44:04.874Z,53.1
2017-11-05T10:45:07.037Z,53
2017-11-05T10:46:09.206Z,52.8
2017-11-05T10:47:11.024Z,52.8
2017-11-05T10:48:12.491Z,52.9
2017-11-05T10:49:13.973Z,52.9
2017-11-05T10:50:15.789Z,52.7
2017-11-05T10:51:17.607Z,52.8
2017-11-05T10:52:19.428Z,52.8
2017-11-05T10:53:20.905Z,53.7
2017-11-05T10:54:22.363Z,53.2
2017-11-05T10:55:23.819Z,52.7
2017-11-05T10:56:25.636Z,52.9
2017-11-05T10:57:26.775Z,52.9
2017-11-05T10:58:28.580Z,52.9
2017-11-05T10:59:30.400Z,52.9
2017-11-05T11:00:31.877Z,53
2017-11-05T11:01:34.045Z,53
2017-11-05T11:02:35.865Z,52.9
2017-11-05T11:03:37.684Z,52.9
2017-11-05T11:04:39.485Z,52.9
2017-11-05T11:05:40.619Z,52.9
2017-11-05T11:06:42.443Z,53.7
2017-11-05T11:07:44.608Z,53.1
2017-11-05T11:08:46.776Z,53
2017-11-05T11:09:48.578Z,52.9
2017-11-05T11:10:50.410Z,52.9
2017-11-05T11:11:52.223Z,52.9
2017-11-05T11:12:54.046Z,52.9
2017-11-05T11:13:55.862Z,53.1
2017-11-05T11:14:57.685Z,53
2017-11-05T11:15:59.506Z,53.1
2017-11-05T11:17:01.305Z,53
2017-11-05T11:18:03.472Z,53
2017-11-05T11:19:05.267Z,53.1
2017-11-05T11:20:06.725Z,53.2
2017-11-05T11:21:08.546Z,53.3
2017-11-05T11:22:10.004Z,53.1
2017-11-05T11:23:11.114Z,53
2017-11-05T11:24:12.569Z,53
2017-11-05T11:25:13.703Z,53.1
2017-11-05T11:26:15.869Z,53
2017-11-05T11:27:17.690Z,53
2017-11-05T11:28:19.505Z,52.9
2017-11-05T11:29:21.331Z,52.9
2017-11-05T11:30:23.154Z,53.1
2017-11-05T11:31:24.261Z,53
2017-11-05T11:32:26.427Z,53.1
2017-11-05T11:33:28.589Z,53
2017-11-05T11:34:30.066Z,53.3
2017-11-05T11:35:31.890Z,53.1
2017-11-05T11:36:33.350Z,53
2017-11-05T11:37:34.802Z,53
2017-11-05T11:38:36.975Z,52.9
2017-11-05T11:39:38.106Z,53
2017-11-05T11:40:39.222Z,52.9
2017-11-05T11:41:40.702Z,52.9
2017-11-05T11:42:42.528Z,52.8
2017-11-05T11:43:43.985Z,53.2
2017-11-05T11:44:45.803Z,52.9
2017-11-05T11:45:47.968Z,52.9
2017-11-05T11:46:49.782Z,52.9
2017-11-05T11:47:51.582Z,52.7
2017-11-05T11:48:53.402Z,52.7
2017-11-05T11:49:54.858Z,52.9
2017-11-05T11:50:56.334Z,52.7
2017-11-05T11:51:58.133Z,52.7
2017-11-05T11:53:00.326Z,52.9
2017-11-05T11:54:02.138Z,52.8
2017-11-05T11:55:03.614Z,52.9
2017-11-05T11:56:04.386Z,52.9
2017-11-05T11:57:05.155Z,52.9
2017-11-05T11:58:07.321Z,52.9
2017-11-05T11:59:08.802Z,53.4
2017-11-05T12:00:10.278Z,52.9
2017-11-05T12:01:12.098Z,52.8
2017-11-05T12:02:13.211Z,52.8
2017-11-05T12:03:15.030Z,52.7
2017-11-05T12:04:17.195Z,52.6
2017-11-05T12:05:18.672Z,52.8
2017-11-05T12:06:20.833Z,52.7
2017-11-05T12:07:22.310Z,52.8
2017-11-05T12:08:24.141Z,52.7
2017-11-05T12:09:25.962Z,52.9
2017-11-05T12:10:27.411Z,52.9
2017-11-05T12:11:28.873Z,52.8
2017-11-05T12:12:30.324Z,52.6
2017-11-05T12:13:31.804Z,52.9
2017-11-05T12:14:33.965Z,52.7
2017-11-05T12:15:35.768Z,52.8
2017-11-05T12:16:37.936Z,52.6
2017-11-05T12:17:40.099Z,52.6
2017-11-05T12:18:41.901Z,52.8
2017-11-05T12:19:44.066Z,52.8
2017-11-05T12:20:46.232Z,52.7
2017-11-05T12:21:48.049Z,52.8
2017-11-05T12:22:49.872Z,52.5
2017-11-05T12:23:51.712Z,52.5
2017-11-05T12:24:53.877Z,52.8
2017-11-05T12:25:55.682Z,52.5
2017-11-05T12:26:57.501Z,52.5
2017-11-05T12:27:58.982Z,52.8
2017-11-05T12:29:00.461Z,52.6
2017-11-05T12:30:02.280Z,52.5
2017-11-05T12:31:04.104Z,52.8
2017-11-05T12:32:05.924Z,52.5
2017-11-05T12:33:07.389Z,52.7
2017-11-05T12:34:08.489Z,52.6
2017-11-05T12:35:10.669Z,52.7
2017-11-05T12:36:12.500Z,52.8
2017-11-05T12:37:13.599Z,52.7
2017-11-05T12:38:15.761Z,52.8
2017-11-05T12:39:17.220Z,53
2017-11-05T12:40:19.382Z,52.7
2017-11-05T12:41:21.562Z,52.4
2017-11-05T12:42:23.020Z,52.6
2017-11-05T12:43:24.840Z,52.8
2017-11-05T12:44:26.640Z,52.7
2017-11-05T12:45:28.852Z,52.7
2017-11-05T12:46:29.983Z,53.1
2017-11-05T12:47:32.147Z,52.7
2017-11-05T12:48:34.309Z,52.7
2017-11-05T12:49:36.475Z,52.6
2017-11-05T12:50:38.298Z,53
2017-11-05T12:51:40.096Z,53.2
2017-11-05T12:52:41.576Z,52.7
2017-11-05T12:53:43.402Z,53.1
2017-11-05T12:54:44.866Z,52.6
2017-11-05T12:55:46.687Z,52.7
2017-11-05T12:56:48.163Z,53.2
2017-11-05T12:57:50.329Z,53.2
2017-11-05T12:58:52.494Z,52.6
2017-11-05T12:59:53.950Z,52.5
2017-11-05T13:00:55.772Z,52.8
2017-11-05T13:01:57.948Z,52.8
2017-11-05T13:03:00.115Z,52.6
2017-11-05T13:04:02.279Z,52.7
2017-11-05T13:05:03.737Z,52.8
2017-11-05T13:06:05.900Z,52.5
2017-11-05T13:07:07.719Z,52.5
2017-11-05T13:08:09.544Z,52.5
2017-11-05T13:09:10.659Z,52.6
2017-11-05T13:10:12.476Z,52.8
2017-11-05T13:11:13.936Z,52.9
2017-11-05T13:12:16.103Z,52.6
2017-11-05T13:13:17.585Z,52.5
2017-11-05T13:14:19.776Z,52.7
2017-11-05T13:15:21.248Z,52.6
2017-11-05T13:16:23.420Z,52.5
2017-11-05T13:17:25.589Z,52.7
2017-11-05T13:18:27.425Z,52.5
2017-11-05T13:19:28.879Z,52.8
2017-11-05T13:20:30.700Z,52.8
2017-11-05T13:21:32.161Z,52.4
2017-11-05T13:22:34.013Z,52.8
2017-11-05T13:23:35.832Z,52.9
2017-11-05T13:24:37.649Z,52.6
2017-11-05T13:25:39.471Z,52.9
2017-11-05T13:26:41.288Z,52.5
2017-11-05T13:27:43.120Z,52.5
2017-11-05T13:28:44.941Z,52.9
2017-11-05T13:29:46.059Z,52.5
2017-11-05T13:30:47.538Z,52.5
2017-11-05T13:31:49.013Z,52.6
2017-11-05T13:32:50.837Z,52.4
2017-11-05T13:33:52.655Z,52.5
2017-11-05T13:34:54.820Z,52.4
2017-11-05T13:35:56.740Z,52.4
2017-11-05T13:36:58.217Z,52.4
2017-11-05T13:38:00.040Z,52.6
2017-11-05T13:39:01.517Z,52.4
2017-11-05T13:40:03.680Z,52.5
2017-11-05T13:41:05.509Z,52.5
2017-11-05T13:42:06.983Z,52.4
2017-11-05T13:43:08.781Z,52.4
2017-11-05T13:44:10.263Z,52.3
2017-11-05T13:45:11.367Z,52.2
2017-11-05T13:46:13.187Z,52.3
2017-11-05T13:47:14.670Z,52.5
2017-11-05T13:48:16.487Z,52.5
2017-11-05T13:49:17.944Z,52.5